Wendover Airport
KENV : now visible

Airfield :











YOU CAN JOIN US ON...

 
LOGIN :

Register | Disclaimer

   EN    FR    IT 

 









Legend :    VFR   Marginal VFR   IFR   Intensive IFR   Very Intensive IFR
Visi :
Ceiling :
>= 8 km
>= 3000ft
5 to 8 km
1000 to 3000 ft
1500m to 5 km
500 to 1000 ft
800 to 1500m
200 to 500 ft
< 800m
< 200 ft
Symbols :   Thunderstorms  Fog  Heavy snow  Heavy precipitations  Wind > 20 kt






- Airport Elevation : 4237 ft


KENV - Wendover

CURRENT METAR :
  • 042256Z AUTO 11009KT 10SM CLR 36/M04 A2998 RMK AO2 SLP103 T03561039

EXPIRED METARs :
  • 042156Z AUTO 10014KT 10SM CLR 36/M04 A3000 RMK AO2 SLP105 T03611044
  • 042056Z AUTO 12012KT 10SM CLR 35/M04 A3002 RMK AO2 SLP111 T03501044 58020

TAF KENV
Valid from the 05 at 00:00 until the 06 at 00:00 UTC


042320Z 0500/0524 24012G20KT P6SM SKC
FM050100 27013KT P6SM SKC
FM050400 32012G21KT P6SM SKC
FM051500 33006KT P6SM SKC
KZLC FIR / North America



MET'MAP, your aeronautical weather chart ! - Copyright ORBIFLY December 2007 - Disclaimer

ORBIFLY MET'MAP TEAM :

Programming & Development : Alexandra Zaïnal
Concept & original design : Baudouin d'Aumeries
Assistance for programming : Marc-Olivier Méhu
Technical & hardware support : Manuel Goepfert

Contact : metmap@orbifly.com




SOURCES & CREDITS :

   NOAA       Earth
Advisory